createdAt,value
2018-02-09T00:00:04.591Z,15.60
2018-02-09T00:02:32.148Z,17.37
2018-02-09T00:04:59.752Z,16.63
2018-02-09T00:07:27.307Z,14.57
2018-02-09T00:09:54.851Z,14.77
2018-02-09T00:12:22.735Z,14.97
2018-02-09T00:14:50.277Z,16.47
2018-02-09T00:17:17.876Z,13.47
2018-02-09T00:19:45.804Z,14.83
2018-02-09T00:22:13.419Z,14.23
2018-02-09T00:24:41.509Z,13.93
2018-02-09T00:27:09.662Z,13.63
2018-02-09T00:29:37.615Z,13.90
2018-02-09T00:32:05.155Z,13.67
2018-02-09T00:34:32.747Z,14.30
2018-02-09T00:37:00.292Z,13.73
2018-02-09T00:39:28.353Z,14.80
2018-02-09T00:41:56.343Z,15.70
2018-02-09T00:44:23.936Z,13.50
2018-02-09T00:46:52.446Z,12.60
2018-02-09T00:49:20.039Z,12.20
2018-02-09T00:51:47.623Z,11.80
2018-02-09T00:54:15.158Z,10.63
2018-02-09T00:56:42.745Z,10.43
2018-02-09T00:59:10.282Z,9.90
2018-02-09T01:01:37.819Z,8.27
2018-02-09T01:04:06.062Z,9.47
2018-02-09T01:06:33.644Z,9.20
2018-02-09T01:09:01.227Z,9.80
2018-02-09T01:11:28.767Z,9.50
2018-02-09T01:13:56.320Z,8.57
2018-02-09T01:16:23.923Z,8.13
2018-02-09T01:18:51.503Z,8.57
2018-02-09T01:21:19.101Z,7.77
2018-02-09T01:23:46.652Z,8.30
2018-02-09T01:26:14.183Z,8.17
2018-02-09T01:28:41.771Z,7.23
2018-02-09T01:31:09.302Z,8.20
2018-02-09T01:33:37.436Z,7.60
2018-02-09T01:36:04.984Z,8.03
2018-02-09T01:38:32.514Z,7.40
2018-02-09T01:41:00.096Z,7.93
2018-02-09T01:43:27.639Z,8.30
2018-02-09T01:45:55.227Z,7.80
2018-02-09T01:48:23.163Z,7.53
2018-02-09T01:50:50.707Z,7.93
2018-02-09T01:53:18.294Z,7.50
2018-02-09T01:55:45.843Z,7.80
2018-02-09T01:58:13.427Z,7.43
2018-02-09T02:00:41.004Z,7.27
2018-02-09T02:03:08.589Z,7.13
2018-02-09T02:05:36.131Z,6.70
2018-02-09T02:08:04.086Z,7.27
2018-02-09T02:10:31.630Z,7.93
2018-02-09T02:12:59.162Z,7.70
2018-02-09T02:15:27.503Z,6.93
2018-02-09T02:17:55.083Z,7.00
2018-02-09T02:20:22.651Z,7.20
2018-02-09T02:22:50.191Z,7.10
2018-02-09T02:25:17.769Z,6.80
2018-02-09T02:27:45.312Z,7.13
2018-02-09T02:30:12.896Z,6.53
2018-02-09T02:32:41.516Z,7.60
2018-02-09T02:35:09.067Z,7.87
2018-02-09T02:37:36.896Z,7.60
2018-02-09T02:40:04.440Z,6.63
2018-02-09T02:42:32.670Z,7.03
2018-02-09T02:45:00.255Z,6.70
2018-02-09T02:47:28.506Z,7.40
2018-02-09T02:49:56.207Z,7.07
2018-02-09T02:52:23.796Z,7.93
2018-02-09T02:54:51.331Z,8.27
2018-02-09T02:57:19.521Z,7.80
2018-02-09T02:59:47.502Z,8.27
2018-02-09T03:02:15.057Z,7.83
2018-02-09T03:04:42.645Z,7.83
2018-02-09T03:07:10.218Z,7.80
2018-02-09T03:09:37.802Z,7.90
2018-02-09T03:12:05.343Z,8.23
2018-02-09T03:14:32.878Z,6.87
2018-02-09T03:17:00.442Z,5.73
2018-02-09T03:19:28.015Z,6.10
2018-02-09T03:21:56.101Z,5.83
2018-02-09T03:24:23.626Z,6.00
2018-02-09T03:26:51.204Z,6.23
2018-02-09T03:29:18.748Z,5.70
2018-02-09T03:31:46.318Z,6.70
2018-02-09T03:34:14.353Z,6.43
2018-02-09T03:36:41.942Z,7.83
2018-02-09T03:39:09.483Z,9.00
2018-02-09T03:41:37.464Z,7.40
2018-02-09T03:44:05.008Z,7.77
2018-02-09T03:46:32.591Z,7.07
2018-02-09T03:49:00.136Z,7.10
2018-02-09T03:51:28.085Z,6.90
2018-02-09T03:53:55.662Z,6.40
2018-02-09T03:56:23.208Z,6.40
2018-02-09T03:58:50.782Z,6.37
2018-02-09T04:01:18.723Z,6.70
2018-02-09T04:03:46.263Z,5.70
2018-02-09T04:06:13.847Z,6.17
2018-02-09T04:08:41.400Z,6.93
2018-02-09T04:11:08.986Z,6.00
2018-02-09T04:13:36.566Z,6.27
2018-02-09T04:16:04.116Z,6.80
2018-02-09T04:18:31.700Z,6.07
2018-02-09T04:20:59.646Z,6.70
2018-02-09T04:23:27.218Z,6.17
2018-02-09T04:25:55.252Z,5.93
2018-02-09T04:28:22.839Z,7.07
2018-02-09T04:30:50.370Z,6.97
2018-02-09T04:33:18.310Z,6.83
2018-02-09T04:35:46.079Z,7.23
2018-02-09T04:38:13.614Z,6.67
2018-02-09T04:40:41.187Z,7.50
2018-02-09T04:43:08.779Z,7.57
2018-02-09T04:45:36.309Z,6.90
2018-02-09T04:48:03.928Z,6.93
2018-02-09T04:50:31.474Z,7.23
2018-02-09T04:52:59.024Z,6.77
2018-02-09T04:55:26.627Z,6.83
2018-02-09T04:57:54.166Z,7.13
2018-02-09T05:00:21.757Z,7.53
2018-02-09T05:02:49.321Z,6.87
2018-02-09T05:05:16.989Z,7.47
2018-02-09T05:07:44.521Z,7.57
2018-02-09T05:10:12.072Z,8.83
2018-02-09T05:12:40.113Z,8.80
2018-02-09T05:15:07.676Z,7.60
2018-02-09T05:17:35.826Z,8.40
2018-02-09T05:20:03.380Z,7.83
2018-02-09T05:22:30.954Z,8.20
2018-02-09T05:24:58.500Z,8.20
2018-02-09T05:27:26.087Z,7.23
2018-02-09T05:29:53.904Z,7.60
2018-02-09T05:32:21.594Z,9.07
2018-02-09T05:34:49.183Z,8.97
2018-02-09T05:37:16.780Z,8.70
2018-02-09T05:39:44.564Z,8.13
2018-02-09T05:42:12.106Z,9.33
2018-02-09T05:44:39.704Z,8.67
2018-02-09T05:47:07.270Z,9.93
2018-02-09T05:49:34.815Z,10.38
2018-02-09T05:52:02.408Z,8.47
2018-02-09T05:54:29.963Z,10.82
2018-02-09T05:56:57.864Z,11.57
2018-02-09T05:59:25.838Z,9.30
2018-02-09T06:01:54.099Z,10.23
2018-02-09T06:04:21.924Z,11.00
2018-02-09T06:06:49.530Z,11.65
2018-02-09T06:09:17.091Z,11.03
2018-02-09T06:11:44.647Z,13.23
2018-02-09T06:14:12.258Z,10.70
2018-02-09T06:16:39.959Z,10.60
2018-02-09T06:19:07.564Z,10.37
2018-02-09T06:21:35.122Z,11.67
2018-02-09T06:24:02.779Z,9.48
2018-02-09T06:26:31.220Z,9.37
2018-02-09T06:28:58.777Z,8.70
2018-02-09T06:31:27.334Z,9.40
2018-02-09T06:33:54.894Z,8.35
2018-02-09T06:36:22.488Z,8.13
2018-02-09T06:38:50.098Z,8.70
2018-02-09T06:41:17.638Z,8.43
2018-02-09T06:43:45.466Z,7.10
2018-02-09T06:46:13.078Z,7.37
2018-02-09T06:48:41.958Z,8.57
2018-02-09T06:51:09.543Z,7.20
2018-02-09T06:53:38.789Z,8.02
2018-02-09T06:56:06.813Z,7.77
2018-02-09T06:58:35.170Z,7.78
2018-02-09T07:01:02.842Z,7.67
2018-02-09T07:03:30.703Z,8.07
2018-02-09T07:05:58.263Z,7.17
2018-02-09T07:08:26.861Z,7.33
2018-02-09T07:10:54.403Z,7.17
2018-02-09T07:13:21.996Z,8.55
2018-02-09T07:15:49.864Z,7.43
2018-02-09T07:18:17.406Z,7.87
2018-02-09T07:20:45.772Z,8.93
2018-02-09T07:23:13.326Z,7.50
2018-02-09T07:25:40.917Z,8.87
2018-02-09T07:28:08.517Z,8.50
2018-02-09T07:30:36.116Z,8.63
2018-02-09T07:33:03.877Z,8.20
2018-02-09T07:35:31.844Z,8.50
2018-02-09T07:38:00.046Z,8.73
2018-02-09T07:40:27.595Z,7.90
2018-02-09T07:42:55.314Z,8.10
2018-02-09T07:45:22.915Z,6.60
2018-02-09T07:47:50.467Z,7.67
2018-02-09T07:50:19.009Z,7.07
2018-02-09T07:52:46.604Z,8.30
2018-02-09T07:55:15.258Z,8.30
2018-02-09T07:57:42.859Z,8.50
2018-02-09T08:00:11.269Z,7.97
2018-02-09T08:02:40.314Z,7.73
2018-02-09T08:05:07.868Z,8.23
2018-02-09T08:07:35.641Z,8.85
2018-02-09T08:10:03.240Z,10.17
2018-02-09T08:12:30.823Z,9.57
2018-02-09T08:14:58.362Z,9.60
2018-02-09T08:17:25.959Z,10.98
2018-02-09T08:19:53.524Z,10.93
2018-02-09T08:22:21.466Z,10.80
2018-02-09T08:24:49.063Z,10.50
2018-02-09T08:27:16.619Z,11.10
2018-02-09T08:29:44.240Z,11.20
2018-02-09T08:32:11.846Z,11.23
2018-02-09T08:34:39.435Z,9.90
2018-02-09T08:37:07.224Z,9.50
2018-02-09T08:39:34.771Z,8.87
2018-02-09T08:42:02.311Z,7.97
2018-02-09T08:44:29.898Z,6.40
2018-02-09T08:46:57.488Z,6.87
2018-02-09T08:49:25.074Z,7.20
2018-02-09T08:51:52.672Z,6.30
2018-02-09T08:54:20.987Z,6.70
2018-02-09T08:56:48.588Z,6.50
2018-02-09T08:59:16.211Z,5.97
2018-02-09T09:01:43.764Z,5.97
2018-02-09T09:04:11.384Z,6.72
2018-02-09T09:06:38.952Z,6.50
2018-02-09T09:09:06.524Z,5.75
2018-02-09T09:11:34.107Z,6.60
2018-02-09T09:14:01.649Z,5.70
2018-02-09T09:16:29.210Z,5.90
2018-02-09T09:18:58.240Z,5.43
2018-02-09T09:21:25.830Z,6.53
2018-02-09T09:23:53.432Z,5.53
2018-02-09T09:26:21.055Z,6.78
2018-02-09T09:28:48.621Z,6.63
2018-02-09T09:31:16.215Z,7.20
2018-02-09T09:33:43.826Z,9.60
2018-02-09T09:36:11.761Z,8.57
2018-02-09T09:38:39.575Z,7.15
2018-02-09T09:41:07.186Z,7.43
2018-02-09T09:43:34.726Z,6.77
2018-02-09T09:46:03.101Z,6.53
2018-02-09T09:48:30.730Z,6.63
2018-02-09T09:50:58.296Z,6.00
2018-02-09T09:53:26.122Z,5.97
2018-02-09T09:55:53.784Z,5.80
2018-02-09T09:58:21.324Z,5.93
2018-02-09T10:00:48.867Z,6.00
2018-02-09T10:03:16.448Z,8.93
2018-02-09T10:05:44.095Z,7.32
2018-02-09T10:08:12.491Z,6.83
2018-02-09T10:10:40.080Z,6.63
2018-02-09T10:13:07.652Z,6.77
2018-02-09T10:15:35.234Z,6.72
2018-02-09T10:18:03.110Z,6.63
2018-02-09T10:20:30.700Z,6.43
2018-02-09T10:22:58.336Z,7.15
2018-02-09T10:25:25.884Z,6.00
2018-02-09T10:27:53.475Z,6.60
2018-02-09T10:30:21.270Z,6.03
2018-02-09T10:32:48.877Z,6.20
2018-02-09T10:35:18.097Z,5.97
2018-02-09T10:37:46.026Z,6.30
2018-02-09T10:40:13.676Z,6.83
2018-02-09T10:42:41.272Z,5.37
2018-02-09T10:45:08.832Z,5.70
2018-02-09T10:47:36.452Z,6.00
2018-02-09T10:50:05.130Z,5.47
2018-02-09T10:52:32.681Z,5.80
2018-02-09T10:55:00.275Z,6.15
2018-02-09T10:57:27.815Z,5.87
2018-02-09T10:59:55.894Z,5.12
2018-02-09T11:02:23.488Z,5.53
2018-02-09T11:04:51.409Z,5.70
2018-02-09T11:07:19.279Z,5.28
2018-02-09T11:09:46.850Z,5.03
2018-02-09T11:12:14.478Z,5.13
2018-02-09T11:14:42.046Z,5.93
2018-02-09T11:17:09.639Z,6.70
2018-02-09T11:19:37.205Z,5.87
2018-02-09T11:22:05.288Z,7.78
2018-02-09T11:24:32.836Z,5.37
2018-02-09T11:27:00.426Z,5.87
2018-02-09T11:29:28.076Z,6.35
2018-02-09T11:31:55.640Z,6.47
2018-02-09T11:34:23.497Z,7.07
2018-02-09T11:36:51.731Z,7.10
2018-02-09T11:39:20.009Z,6.83
2018-02-09T11:41:47.609Z,6.27
2018-02-09T11:44:15.429Z,6.60
2018-02-09T11:46:43.023Z,6.63
2018-02-09T11:49:10.629Z,7.10
2018-02-09T11:51:38.176Z,5.30
2018-02-09T11:54:05.745Z,5.83
2018-02-09T11:56:33.320Z,5.80
2018-02-09T11:59:00.915Z,4.43
2018-02-09T12:01:28.510Z,4.53
2018-02-09T12:03:56.479Z,4.60
2018-02-09T12:06:24.412Z,4.20
2018-02-09T12:08:52.007Z,6.90
2018-02-09T12:11:19.658Z,4.90
2018-02-09T12:13:47.214Z,5.35
2018-02-09T12:16:15.164Z,5.80
2018-02-09T12:18:42.704Z,4.93
2018-02-09T12:21:10.249Z,4.70
2018-02-09T12:23:38.121Z,5.10
2018-02-09T12:26:05.756Z,4.93
2018-02-09T12:28:33.353Z,4.80
2018-02-09T12:31:01.332Z,4.60
2018-02-09T12:33:29.878Z,5.60
2018-02-09T12:35:57.476Z,5.00
2018-02-09T12:38:25.317Z,5.53
2018-02-09T12:40:52.863Z,5.50
2018-02-09T12:43:20.419Z,6.43
2018-02-09T12:45:48.027Z,6.60
2018-02-09T12:48:15.803Z,6.65
2018-02-09T12:50:43.408Z,5.87
2018-02-09T12:53:10.950Z,6.15
2018-02-09T12:55:38.500Z,6.55
2018-02-09T12:58:06.090Z,6.70
2018-02-09T13:00:33.728Z,7.00
2018-02-09T13:03:01.273Z,6.40
2018-02-09T13:05:28.872Z,6.90
2018-02-09T13:07:56.471Z,6.27
2018-02-09T13:10:24.052Z,4.57
2018-02-09T13:13:03.224Z,3.87
2018-02-09T13:15:31.437Z,4.97
2018-02-09T13:17:58.983Z,5.30
2018-02-09T13:20:26.593Z,4.87
2018-02-09T13:23:05.965Z,5.12
2018-02-09T13:25:33.555Z,4.85
2018-02-09T13:28:01.099Z,5.03
2018-02-09T13:30:28.705Z,6.03
2018-02-09T13:33:08.003Z,5.10
2018-02-09T13:35:35.860Z,5.77
2018-02-09T13:38:03.424Z,4.87
2018-02-09T13:40:30.966Z,5.70
2018-02-09T13:42:59.594Z,5.75
2018-02-09T13:45:27.146Z,5.30
2018-02-09T13:47:54.746Z,6.57
2018-02-09T13:50:22.286Z,5.32
2018-02-09T13:52:49.912Z,7.03
2018-02-09T13:55:17.451Z,5.63
2018-02-09T13:57:45.011Z,5.13
2018-02-09T14:00:12.591Z,4.93
2018-02-09T14:02:41.080Z,5.90
2018-02-09T14:05:09.020Z,5.83
2018-02-09T14:07:36.580Z,5.85
2018-02-09T14:10:04.170Z,6.50
2018-02-09T14:12:32.635Z,5.77
2018-02-09T14:15:00.227Z,5.15
2018-02-09T14:17:27.773Z,4.77
2018-02-09T14:19:55.363Z,5.70
2018-02-09T14:22:23.065Z,5.33
2018-02-09T14:24:50.611Z,5.03
2018-02-09T14:27:18.191Z,5.45
2018-02-09T14:29:45.734Z,5.03
2018-02-09T14:32:14.313Z,5.83
2018-02-09T14:34:41.856Z,5.70
2018-02-09T14:37:09.405Z,5.35
2018-02-09T14:39:36.989Z,5.70
2018-02-09T14:42:05.419Z,5.40
2018-02-09T14:44:32.960Z,5.47
2018-02-09T14:47:00.552Z,5.60
2018-02-09T14:49:28.233Z,4.90
2018-02-09T14:51:55.974Z,4.13
2018-02-09T14:54:23.524Z,5.20
2018-02-09T14:56:51.208Z,4.20
2018-02-09T14:59:18.899Z,4.23
2018-02-09T15:01:46.711Z,4.23
2018-02-09T15:04:14.304Z,5.47
2018-02-09T15:06:41.854Z,5.00
2018-02-09T15:09:09.441Z,5.50
2018-02-09T15:11:38.723Z,5.97
2018-02-09T15:14:06.893Z,6.40
2018-02-09T15:16:34.438Z,5.37
2018-02-09T15:19:02.051Z,5.13
2018-02-09T15:21:29.599Z,4.70
2018-02-09T15:23:57.528Z,4.53
2018-02-09T15:26:25.124Z,4.80
2018-02-09T15:28:52.672Z,4.40
2018-02-09T15:31:20.263Z,5.10
2018-02-09T15:33:47.868Z,4.13
2018-02-09T15:36:15.971Z,4.67
2018-02-09T15:38:43.519Z,4.90
2018-02-09T15:41:11.107Z,5.03
2018-02-09T15:43:38.978Z,4.43
2018-02-09T15:46:06.523Z,4.50
2018-02-09T15:48:34.113Z,4.67
2018-02-09T15:51:01.710Z,5.03
2018-02-09T15:53:29.246Z,4.80
2018-02-09T15:55:56.812Z,4.80
2018-02-09T15:58:25.344Z,5.10
2018-02-09T16:00:53.488Z,5.43
2018-02-09T16:03:21.839Z,4.90
2018-02-09T16:05:49.436Z,5.07
2018-02-09T16:08:18.944Z,5.10
2018-02-09T16:10:46.544Z,6.13
2018-02-09T16:13:15.565Z,5.37
2018-02-09T16:15:43.359Z,5.23
2018-02-09T16:18:11.597Z,5.10
2018-02-09T16:20:39.131Z,5.20
2018-02-09T16:23:07.134Z,5.50
2018-02-09T16:25:35.542Z,5.27
2018-02-09T16:28:03.916Z,4.70
2018-02-09T16:30:31.658Z,5.67
2018-02-09T16:32:59.253Z,7.40
2018-02-09T16:35:27.280Z,10.13
2018-02-09T16:37:54.873Z,14.20
2018-02-09T16:40:22.488Z,24.57
2018-02-09T16:42:51.096Z,18.67
2018-02-09T16:45:18.638Z,40.30
2018-02-09T16:47:46.947Z,24.80
2018-02-09T16:50:14.899Z,15.57
2018-02-09T16:52:42.447Z,17.70
2018-02-09T16:55:10.031Z,26.47
2018-02-09T16:57:37.631Z,28.50
2018-02-09T17:00:05.186Z,29.13
2018-02-09T17:02:33.052Z,24.37
2018-02-09T17:05:00.643Z,20.53
2018-02-09T17:07:28.550Z,21.07
2018-02-09T17:09:56.111Z,26.47
2018-02-09T17:12:25.339Z,30.87
2018-02-09T17:14:52.935Z,34.97
2018-02-09T17:17:20.796Z,29.80
2018-02-09T17:19:48.392Z,30.53
2018-02-09T17:22:15.947Z,31.87
2018-02-09T17:24:43.535Z,33.47
2018-02-09T17:27:11.100Z,35.30
2018-02-09T17:29:38.879Z,32.10
2018-02-09T17:32:06.448Z,33.13
2018-02-09T17:34:34.233Z,29.50
2018-02-09T17:37:01.790Z,27.47
2018-02-09T17:39:30.300Z,30.40
2018-02-09T17:41:57.847Z,37.37
2018-02-09T17:44:26.161Z,30.87
2018-02-09T17:46:54.150Z,28.10
2018-02-09T17:49:22.452Z,29.43
2018-02-09T17:51:50.538Z,25.67
2018-02-09T17:54:18.089Z,24.97
2018-02-09T17:56:45.634Z,24.57
2018-02-09T17:59:13.872Z,25.17
2018-02-09T18:01:42.183Z,26.57
2018-02-09T18:04:09.736Z,23.03
2018-02-09T18:06:39.884Z,22.30
2018-02-09T18:09:08.714Z,23.50
2018-02-09T18:11:36.526Z,22.27
2018-02-09T18:14:04.342Z,22.70
2018-02-09T18:16:32.007Z,21.67
2018-02-09T18:19:00.360Z,21.77
2018-02-09T18:21:27.974Z,20.33
2018-02-09T18:23:55.956Z,21.80
2018-02-09T18:26:24.129Z,23.83
2018-02-09T18:28:51.727Z,24.63
2018-02-09T18:31:19.748Z,23.47
2018-02-09T18:33:47.741Z,20.20
2018-02-09T18:36:15.362Z,21.77
2018-02-09T18:38:43.444Z,21.63
2018-02-09T18:41:11.591Z,21.47
2018-02-09T18:43:39.198Z,22.93
2018-02-09T18:46:07.743Z,22.07
2018-02-09T18:48:36.171Z,23.93
2018-02-09T18:51:04.854Z,25.23
2018-02-09T18:53:32.457Z,24.30
2018-02-09T18:56:00.953Z,25.60
2018-02-09T18:58:28.763Z,26.23
2018-02-09T19:00:57.294Z,24.90
2018-02-09T19:03:25.441Z,27.80
2018-02-09T19:05:53.429Z,27.73
2018-02-09T19:08:21.015Z,25.93
2018-02-09T19:10:48.612Z,21.40
2018-02-09T19:13:16.212Z,23.10
2018-02-09T19:15:44.000Z,25.03
2018-02-09T19:18:11.604Z,25.63
2018-02-09T19:20:39.196Z,23.63
2018-02-09T19:23:07.110Z,26.57
2018-02-09T19:25:36.019Z,21.20
2018-02-09T19:28:03.843Z,20.17
2018-02-09T19:30:32.206Z,19.70
2018-02-09T19:33:00.634Z,22.47
2018-02-09T19:35:29.417Z,21.33
2018-02-09T19:37:58.696Z,18.53
2018-02-09T19:40:27.353Z,18.47
2018-02-09T19:42:55.100Z,17.53
2018-02-09T19:45:22.719Z,18.97
2018-02-09T19:47:50.286Z,18.60
2018-02-09T19:50:18.557Z,17.33
2018-02-09T19:52:46.185Z,16.50
2018-02-09T19:55:13.748Z,16.43
2018-02-09T19:57:41.309Z,17.30
2018-02-09T20:00:08.896Z,15.77
2018-02-09T20:02:36.501Z,17.17
2018-02-09T20:05:04.474Z,16.73
2018-02-09T20:07:32.357Z,17.00
2018-02-09T20:09:59.957Z,16.50
2018-02-09T20:12:27.774Z,17.30
2018-02-09T20:14:55.359Z,17.57
2018-02-09T20:17:22.971Z,18.73
2018-02-09T20:19:50.528Z,22.50
2018-02-09T20:22:18.463Z,35.53
2018-02-09T20:24:46.753Z,42.07
2018-02-09T20:27:14.343Z,44.77
2018-02-09T20:29:42.737Z,33.13
2018-02-09T20:32:11.220Z,27.87
2018-02-09T20:34:39.211Z,29.07
2018-02-09T20:37:07.408Z,43.83
2018-02-09T20:39:34.960Z,50.43
2018-02-09T20:42:02.549Z,56.80
2018-02-09T20:44:30.143Z,53.17
2018-02-09T20:46:58.213Z,41.13
2018-02-09T20:49:25.795Z,41.30
2018-02-09T20:51:53.385Z,33.57
2018-02-09T20:54:21.784Z,27.10
2018-02-09T20:56:49.373Z,26.60
2018-02-09T20:59:16.944Z,27.53
2018-02-09T21:01:46.280Z,26.33
2018-02-09T21:04:13.827Z,27.83
2018-02-09T21:06:41.363Z,24.40
2018-02-09T21:09:08.955Z,23.90
2018-02-09T21:11:36.508Z,25.50
2018-02-09T21:14:04.094Z,24.40
2018-02-09T21:16:32.252Z,24.77
2018-02-09T21:18:59.800Z,22.93
2018-02-09T21:21:27.770Z,21.60
2018-02-09T21:23:56.142Z,22.70
2018-02-09T21:26:24.023Z,22.10
2018-02-09T21:28:51.669Z,22.50
2018-02-09T21:31:20.542Z,22.40
2018-02-09T21:33:48.100Z,20.43
2018-02-09T21:36:16.049Z,20.40
2018-02-09T21:38:43.672Z,20.57
2018-02-09T21:41:12.103Z,21.53
2018-02-09T21:43:40.447Z,20.10
2018-02-09T21:46:09.410Z,19.90
2018-02-09T21:48:37.015Z,20.97
2018-02-09T21:51:05.190Z,20.50
2018-02-09T21:53:33.955Z,19.80
2018-02-09T21:56:01.787Z,20.37
2018-02-09T21:58:30.537Z,21.17
2018-02-09T22:00:58.550Z,20.63
2018-02-09T22:03:26.114Z,20.07
2018-02-09T22:05:54.284Z,20.17
2018-02-09T22:08:21.912Z,19.73
2018-02-09T22:10:49.475Z,21.07
2018-02-09T22:13:17.113Z,21.10
2018-02-09T22:15:44.845Z,19.57
2018-02-09T22:18:12.735Z,20.30
2018-02-09T22:20:40.328Z,18.00
2018-02-09T22:23:07.864Z,18.07
2018-02-09T22:25:35.456Z,17.33
2018-02-09T22:28:03.424Z,17.40
2018-02-09T22:30:31.706Z,19.07
2018-02-09T22:32:59.308Z,16.93
2018-02-09T22:35:26.864Z,17.50
2018-02-09T22:37:54.960Z,17.20
2018-02-09T22:40:22.774Z,16.73
2018-02-09T22:42:50.324Z,16.20
2018-02-09T22:45:17.912Z,16.17
2018-02-09T22:47:45.468Z,15.90
2018-02-09T22:50:13.067Z,15.03
2018-02-09T22:52:40.611Z,14.60
2018-02-09T22:55:08.220Z,15.03
2018-02-09T22:57:35.767Z,14.77
2018-02-09T23:00:03.600Z,15.07
2018-02-09T23:02:31.201Z,15.33
2018-02-09T23:04:58.752Z,16.07
2018-02-09T23:07:26.503Z,16.67
2018-02-09T23:09:54.090Z,14.93
2018-02-09T23:12:21.633Z,15.03
2018-02-09T23:14:49.180Z,15.60
2018-02-09T23:17:16.981Z,16.43
2018-02-09T23:19:44.923Z,15.60
2018-02-09T23:22:12.519Z,15.07
2018-02-09T23:24:40.354Z,15.77
2018-02-09T23:27:08.095Z,15.80
2018-02-09T23:29:35.675Z,15.80
2018-02-09T23:32:03.223Z,15.83
2018-02-09T23:34:30.758Z,15.93
2018-02-09T23:36:58.342Z,17.47
2018-02-09T23:39:25.887Z,17.87
2018-02-09T23:41:53.487Z,17.57
2018-02-09T23:44:21.578Z,16.30
2018-02-09T23:46:50.193Z,16.97
2018-02-09T23:49:17.734Z,16.63
2018-02-09T23:51:45.314Z,16.47
2018-02-09T23:54:12.850Z,17.27
2018-02-09T23:56:40.435Z,17.27
2018-02-09T23:59:07.987Z,17.77
